Current Weather

Monclova Intl

Monclova Intl, Mexico (MMMV)

Report from: Wednesday, April 24, 2024 11:43 AM CST
Current time: Wednesday, April 24, 2024 12:39 PM CST

Nearby weather – Weather history – Daily summaries
Weather forecast

Temperature27.0°C (80.6°F)
Heat index27.4°C (81.4°F)
Dew point14.0°C (57.2°F)
Winds 6 kts (3.1 m/s, 6.9 mph) Northeast (40°)
Visibility8 mi. (12.9 km)
Clouds Ceiling: Broken clouds 5,000 ft. (1,524 m)
Altimeter30.02 in.Hg (1017 mB)
Relative humidity45 %
Density altitude1,495 ft. (456 m)
Flight conditions Visual Meteorological Conditions
Raw dataMMMV 241743Z 04006KT 8SM BKN050 27/14 A3002 RMK 8/500 HZY
An error has occurred. This application may no longer respond until reloaded. Reload 🗙